Time;durP1;ratioP1;P1;durP2;ratioP2;P2;SDS_P1;SDS_P2;PMS_P1;PMS_P2;Temp;Humidity;BMP_temperature;BMP_pressure;BME280_temperature;BME280_humidity;BME280_pressure;Samples;Min_cycle;Max_cycle;Signal;HPM_P1;HPM_P2
2020/12/20 00:01:43;;;;;;;39.35;20.30;;;;;;;-1.54;79.34;100982.84;5084470;28;20042;-52
2020/12/20 00:04:10;;;;;;;35.42;19.45;;;;;;;-1.21;78.30;100987.84;5083966;28;20055;-52
2020/12/20 00:06:41;;;;;;;37.35;19.48;;;;;;;-1.61;78.71;100974.09;5084464;28;20033;-52
2020/12/20 00:09:13;;;;;;;37.50;20.48;;;;;;;-1.34;78.77;100993.13;5033327;28;20203;-52
2020/12/20 00:11:40;;;;;;;37.90;20.60;;;;;;;-1.68;79.64;100984.75;5084568;28;20028;-53
2020/12/20 00:14:26;;;;;;;39.85;20.25;;;;;;;-1.44;78.40;100995.22;5084231;28;20039;-52
2020/12/20 00:17:12;;;;;;;38.97;20.33;;;;;;;-1.37;78.70;100995.50;5084360;28;20021;-54
2020/12/20 00:19:38;;;;;;;36.10;19.98;;;;;;;-1.37;78.20;100992.97;5083751;28;20071;-52
2020/12/20 00:22:10;;;;;;;35.53;19.55;;;;;;;-1.12;78.36;100993.34;5083104;28;20042;-53
2020/12/20 00:24:36;;;;;;;40.58;22.02;;;;;;;-1.40;78.52;100993.69;5065114;28;20036;-53
2020/12/20 00:27:03;;;;;;;43.60;20.88;;;;;;;-1.31;78.33;100994.16;5081921;28;20035;-53
2020/12/20 00:29:31;;;;;;;41.45;20.52;;;;;;;-1.28;78.17;100993.44;5084065;28;20032;-53
2020/12/20 00:31:57;;;;;;;37.72;20.42;;;;;;;-1.12;77.73;100989.94;5083796;28;20333;-51
2020/12/20 00:34:23;;;;;;;33.88;19.85;;;;;;;-1.15;77.32;100984.72;5083830;28;20063;-51
2020/12/20 00:36:49;;;;;;;34.20;19.48;;;;;;;-1.25;77.56;100991.88;5083767;28;20040;-51
2020/12/20 00:39:17;;;;;;;33.25;20.05;;;;;;;-1.13;77.59;100991.59;5083890;28;20055;-52
2020/12/20 00:41:47;;;;;;;40.00;20.90;;;;;;;-1.01;77.42;100981.16;5083684;28;20026;-52
2020/12/20 00:44:13;;;;;;;35.42;20.02;;;;;;;-1.05;76.65;100985.19;5083465;28;20036;-52
2020/12/20 00:46:38;;;;;;;42.25;19.95;;;;;;;-0.90;76.55;100994.34;5083549;28;20063;-51
2020/12/20 00:49:04;;;;;;;36.97;19.95;;;;;;;-0.82;76.73;100987.09;5083617;28;20063;-52
2020/12/20 00:51:31;;;;;;;37.35;20.55;;;;;;;-0.81;77.01;100989.69;5082639;28;20108;-52
2020/12/20 00:53:58;;;;;;;36.72;19.20;;;;;;;-0.86;76.76;100986.06;5083524;28;20043;-52
2020/12/20 00:56:23;;;;;;;37.63;19.48;;;;;;;-0.89;75.86;100996.94;5083639;28;20095;-52
2020/12/20 00:58:49;;;;;;;38.15;19.67;;;;;;;-0.96;76.84;100988.97;5083339;28;20078;-53
2020/12/20 01:01:16;;;;;;;39.67;20.95;;;;;;;-0.98;75.94;100994.00;5083393;28;20092;-53
2020/12/20 01:03:42;;;;;;;38.97;19.50;;;;;;;-1.10;76.72;100995.94;5072462;28;20028;-53
2020/12/20 01:06:07;;;;;;;41.85;20.52;;;;;;;-1.16;77.74;100988.03;5063281;28;20053;-53
2020/12/20 01:08:33;;;;;;;40.45;20.13;;;;;;;-1.32;77.95;101000.03;5063174;28;20318;-53
2020/12/20 01:10:59;;;;;;;37.95;20.02;;;;;;;-1.18;77.78;100987.97;5063119;28;20068;-53
2020/12/20 01:13:24;;;;;;;42.03;20.90;;;;;;;-1.14;77.43;100989.88;5071515;28;20127;-53
2020/12/20 01:15:50;;;;;;;38.67;19.63;;;;;;;-1.08;76.82;100994.38;5083165;28;20272;-53
2020/12/20 01:18:17;;;;;;;37.15;20.92;;;;;;;-1.45;78.37;100992.63;5083127;28;20096;-54
2020/12/20 01:20:42;;;;;;;39.60;22.45;;;;;;;-1.27;77.73;100984.97;5083108;28;20024;-53
2020/12/20 01:23:08;;;;;;;39.08;20.98;;;;;;;-1.29;77.63;100978.97;5076984;28;20041;-52
2020/12/20 01:25:34;;;;;;;32.17;19.45;;;;;;;-1.01;77.60;100988.78;5062871;28;20028;-52
2020/12/20 01:27:59;;;;;;;39.88;22.10;;;;;;;-1.18;77.44;100990.53;5071998;28;20031;-51
2020/12/20 01:30:25;;;;;;;39.65;21.10;;;;;;;-1.21;77.71;100982.75;5082927;28;20021;-52
2020/12/20 01:32:50;;;;;;;42.22;22.10;;;;;;;-1.12;77.59;100979.78;5082210;28;20353;-52
2020/12/20 01:35:16;;;;;;;41.92;21.52;;;;;;;-1.23;77.51;100990.31;5082924;28;20095;-52
2020/12/20 01:37:41;;;;;;;40.63;22.02;;;;;;;-1.24;78.05;100993.63;5082874;28;20020;-51
2020/12/20 01:40:07;;;;;;;41.33;20.77;;;;;;;-1.13;77.96;100994.13;5082775;28;20332;-51
2020/12/20 01:42:33;;;;;;;40.30;21.17;;;;;;;-0.93;76.86;100989.97;5081852;28;20324;-51
2020/12/20 01:44:59;;;;;;;42.65;22.17;;;;;;;-0.96;77.58;100994.91;5062739;28;20052;-51
2020/12/20 01:47:32;;;;;;;42.33;21.65;;;;;;;-1.30;77.18;100939.97;5062708;28;20330;-51
2020/12/20 01:49:59;;;;;;;40.85;20.92;;;;;;;-1.37;76.73;100926.91;5062633;28;20025;-52
2020/12/20 01:52:27;;;;;;;44.15;21.33;;;;;;;-1.17;77.39;100989.69;5062743;28;20021;-52
2020/12/20 01:54:56;;;;;;;47.33;22.20;;;;;;;-1.43;77.69;100970.69;5082674;28;20043;-52
2020/12/20 01:57:22;;;;;;;46.92;22.73;;;;;;;-1.51;78.69;100989.75;5082757;28;20066;-53
2020/12/20 01:59:48;;;;;;;46.67;23.27;;;;;;;-1.16;78.87;100981.28;5082538;28;20035;-52
2020/12/20 02:02:14;;;;;;;47.35;23.70;;;;;;;-1.22;78.63;100994.56;5082710;28;20024;-52
2020/12/20 02:04:43;;;;;;;39.80;21.38;;;;;;;-1.14;78.41;100996.59;5064164;28;20267;-52
2020/12/20 02:07:10;;;;;;;48.20;24.58;;;;;;;-1.22;77.85;100999.66;5062517;28;20032;-52
2020/12/20 02:09:36;;;;;;;46.42;23.30;;;;;;;-1.25;77.91;100991.88;5062438;28;20074;-52
2020/12/20 02:12:03;;;;;;;44.38;22.70;;;;;;;-1.84;78.71;100911.13;5062533;28;20029;-52
2020/12/20 02:14:30;;;;;;;47.55;24.83;;;;;;;-1.20;77.93;100996.31;5078768;28;20032;-52
2020/12/20 02:16:55;;;;;;;44.05;23.13;;;;;;;-1.28;78.42;100985.81;5082518;28;20024;-52
2020/12/20 02:19:21;;;;;;;47.22;23.13;;;;;;;-1.13;77.97;100976.34;5082377;28;20346;-52
2020/12/20 02:21:47;;;;;;;45.50;23.00;;;;;;;-1.25;78.75;100991.03;5082411;28;20021;-51
2020/12/20 02:24:13;;;;;;;45.10;24.38;;;;;;;-1.26;78.69;100984.19;5082438;28;20033;-52
2020/12/20 02:26:38;;;;;;;49.65;22.60;;;;;;;-1.30;77.98;100985.69;5082182;28;20107;-52
2020/12/20 02:29:04;;;;;;;46.80;24.33;;;;;;;-1.15;77.73;100987.25;5082235;28;20024;-52
2020/12/20 02:31:30;;;;;;;52.95;25.83;;;;;;;-1.15;77.99;100972.88;5082171;28;20024;-52
2020/12/20 02:33:56;;;;;;;45.08;24.25;;;;;;;-1.21;78.22;100959.88;5082267;28;20025;-52
2020/12/20 02:36:22;;;;;;;52.20;26.05;;;;;;;-1.26;78.21;100974.03;5082277;28;20317;-52
2020/12/20 02:38:48;;;;;;;45.35;21.20;;;;;;;-1.41;78.82;100976.69;5082227;28;20032;-52
2020/12/20 02:41:16;;;;;;;53.65;25.13;;;;;;;-1.69;78.41;100903.41;5081065;28;20107;-52
2020/12/20 02:43:42;;;;;;;52.90;25.50;;;;;;;-1.15;78.31;100954.22;5072612;28;20118;-52
2020/12/20 02:46:07;;;;;;;48.05;23.65;;;;;;;-1.22;78.44;100955.59;5066077;28;20056;-52
2020/12/20 02:48:33;;;;;;;50.00;24.90;;;;;;;-1.47;79.06;100968.78;5065950;28;20096;-52
2020/12/20 02:50:59;;;;;;;48.92;26.05;;;;;;;-1.50;80.61;100969.50;5065812;28;20020;-52
2020/12/20 02:53:24;;;;;;;49.55;24.77;;;;;;;-1.54;80.61;100969.28;5072832;28;20028;-52
2020/12/20 02:55:50;;;;;;;52.65;25.67;;;;;;;-1.45;79.61;100950.28;5085741;28;20092;-52
2020/12/20 02:58:16;;;;;;;49.65;25.23;;;;;;;-1.26;79.72;100948.63;5085796;28;20394;-52
2020/12/20 03:00:42;;;;;;;46.63;23.63;;;;;;;-1.30;79.71;100945.03;5085737;28;20025;-52
2020/12/20 03:03:08;;;;;;;52.08;22.30;;;;;;;-1.40;80.30;100935.25;5080837;28;20100;-52
2020/12/20 03:05:34;;;;;;;46.55;22.77;;;;;;;-1.45;80.15;100932.50;5065661;28;20222;-52
2020/12/20 03:07:59;;;;;;;55.20;24.75;;;;;;;-1.48;80.40;100921.31;5065526;28;20025;-52
2020/12/20 03:10:25;;;;;;;49.67;26.02;;;;;;;-1.35;80.31;100949.06;5065489;28;20369;-52
2020/12/20 03:12:51;;;;;;;51.65;23.98;;;;;;;-1.36;81.20;100946.44;5067461;28;20036;-52
2020/12/20 03:15:17;;;;;;;54.72;25.25;;;;;;;-1.29;80.86;100944.25;5085276;28;20029;-52
2020/12/20 03:17:43;;;;;;;51.90;24.30;;;;;;;-1.61;81.02;100941.06;5085516;28;20035;-52
2020/12/20 03:20:08;;;;;;;50.72;24.67;;;;;;;-1.59;81.41;100938.59;5085053;28;20025;-52
2020/12/20 03:22:34;;;;;;;53.70;25.30;;;;;;;-1.42;81.03;100947.88;5085429;28;20025;-52
2020/12/20 03:24:59;;;;;;;48.42;21.25;;;;;;;-1.61;81.06;100936.00;5065329;28;20226;-52
2020/12/20 03:27:25;;;;;;;49.35;22.92;;;;;;;-1.61;81.54;100951.22;5070788;28;20020;-52
2020/12/20 03:29:50;;;;;;;50.60;24.35;;;;;;;-1.63;81.81;100944.31;5085072;28;20256;-52
2020/12/20 03:32:16;;;;;;;51.40;22.25;;;;;;;-1.58;80.64;100946.28;5085204;28;20128;-52
2020/12/20 03:34:42;;;;;;;47.47;24.23;;;;;;;-1.49;81.31;100966.19;5084881;28;20047;-53
2020/12/20 03:37:07;;;;;;;54.15;26.05;;;;;;;-1.31;81.50;100970.38;5085126;28;20032;-53
2020/12/20 03:39:33;;;;;;;51.13;24.80;;;;;;;-1.17;80.44;100948.16;5084983;28;20037;-52
2020/12/20 03:41:58;;;;;;;51.78;24.85;;;;;;;-1.24;80.26;100947.91;5084972;28;20092;-52
2020/12/20 03:44:24;;;;;;;50.35;25.20;;;;;;;-1.22;80.66;100956.44;5070143;28;20075;-52
2020/12/20 03:46:50;;;;;;;56.08;23.95;;;;;;;-1.46;80.38;100970.53;5064818;28;20033;-53
2020/12/20 03:49:15;;;;;;;48.05;23.35;;;;;;;-1.48;81.25;100965.38;5064809;28;20265;-52
2020/12/20 03:51:41;;;;;;;50.80;24.60;;;;;;;-1.35;80.78;100954.16;5064840;28;20029;-53
2020/12/20 03:54:07;;;;;;;53.40;24.70;;;;;;;-1.34;81.04;100963.50;5076638;28;20096;-53
2020/12/20 03:56:33;;;;;;;56.47;26.17;;;;;;;-1.24;81.59;100970.78;5084262;28;20028;-52
2020/12/20 03:58:59;;;;;;;53.58;25.95;;;;;;;-1.22;80.41;100956.44;5084308;28;20328;-52
2020/12/20 04:01:25;;;;;;;60.20;26.27;;;;;;;-1.20;80.56;100965.81;5084761;28;20035;-59
2020/12/20 04:03:51;;;;;;;55.83;26.25;;;;;;;-1.36;81.35;100976.94;5084070;28;20028;-51
2020/12/20 04:06:17;;;;;;;54.13;26.08;;;;;;;-1.40;80.95;100968.28;5084372;28;20051;-52
2020/12/20 04:08:42;;;;;;;65.70;27.58;;;;;;;-1.43;81.30;100965.59;5084484;28;20345;-52
2020/12/20 04:11:08;;;;;;;54.60;25.73;;;;;;;-1.10;80.98;100976.50;5084006;28;20024;-52
2020/12/20 04:13:33;;;;;;;60.47;26.52;;;;;;;-1.24;80.46;100996.19;5084137;28;20020;-52
2020/12/20 04:16:09;;;;;;;57.80;27.10;;;;;;;-1.10;80.19;100996.84;5084169;28;20036;-52
2020/12/20 04:18:35;;;;;;;58.65;27.15;;;;;;;-1.18;80.55;101007.41;5084130;28;20035;-51
2020/12/20 04:21:01;;;;;;;62.33;28.13;;;;;;;-1.22;80.71;101007.28;5084163;28;20059;-52
2020/12/20 04:23:27;;;;;;;59.75;28.13;;;;;;;-1.21;80.56;100992.91;5077733;28;20111;-52
2020/12/20 04:25:53;;;;;;;57.58;27.17;;;;;;;-1.16;80.79;101005.84;5063943;28;20339;-52
2020/12/20 04:28:19;;;;;;;62.65;28.20;;;;;;;-1.34;81.24;101011.78;5076829;28;20095;-52
2020/12/20 04:30:45;;;;;;;61.85;27.77;;;;;;;-1.15;80.06;101015.22;5084010;28;20036;-52
2020/12/20 04:33:11;;;;;;;61.08;28.23;;;;;;;-1.04;81.16;101016.59;5082697;28;20029;-53
2020/12/20 04:35:36;;;;;;;63.97;29.60;;;;;;;-0.91;79.63;101011.28;5083828;28;20213;-53
2020/12/20 04:38:02;;;;;;;55.78;26.08;;;;;;;-0.96;79.74;101019.50;5083994;28;20039;-53
2020/12/20 04:40:28;;;;;;;61.28;28.30;;;;;;;-0.95;79.91;101009.38;5083684;28;20031;-53
2020/12/20 04:43:08;;;;;;;56.83;27.25;;;;;;;-1.60;80.25;100960.56;5083684;28;20028;-52
2020/12/20 04:45:35;;;;;;;63.05;28.55;;;;;;;-1.08;80.76;101022.34;5083403;28;20044;-53
2020/12/20 04:48:04;;;;;;;62.75;28.92;;;;;;;-1.02;80.65;101026.84;5082445;28;20036;-53
2020/12/20 04:50:31;;;;;;;62.58;29.85;;;;;;;-1.01;79.89;101023.47;5083375;28;20020;-53
2020/12/20 04:52:58;;;;;;;65.55;28.63;;;;;;;-0.99;80.47;101020.22;5081811;28;20031;-53
2020/12/20 04:55:25;;;;;;;60.80;28.02;;;;;;;-0.85;79.38;101010.69;5063429;28;20266;-52
2020/12/20 04:57:53;;;;;;;48.97;24.23;;;;;;;-1.09;79.79;100960.44;5063221;28;20226;-52
2020/12/20 05:00:20;;;;;;;63.00;28.83;;;;;;;-0.81;79.55;101030.38;5062885;28;20040;-53
2020/12/20 05:02:46;;;;;;;56.15;26.85;;;;;;;-0.82;79.97;101025.22;5063164;28;20036;-53
2020/12/20 05:05:12;;;;;;;60.20;27.13;;;;;;;-0.74;79.83;101034.06;5063283;28;20047;-53
2020/12/20 05:07:39;;;;;;;66.05;28.17;;;;;;;-1.06;79.55;101029.22;5062207;28;20344;-53
2020/12/20 05:10:05;;;;;;;59.65;29.30;;;;;;;-1.14;80.52;101042.34;5062713;28;20044;-54
2020/12/20 05:12:34;;;;;;;60.42;27.30;;;;;;;-1.41;80.66;100971.63;5063060;28;20029;-53
2020/12/20 05:15:17;;;;;;;58.53;28.05;;;;;;;-1.26;80.44;100977.44;5062732;28;20214;-53
2020/12/20 05:17:43;;;;;;;57.83;28.98;;;;;;;-0.81;80.43;101034.56;5062970;28;20365;-53
2020/12/20 05:20:34;;;;;;;62.45;28.92;;;;;;;-1.47;80.91;100973.88;5062880;28;20029;-52
2020/12/20 05:22:59;;;;;;;60.08;26.60;;;;;;;-1.00;80.38;101033.72;5064453;28;20036;-52
2020/12/20 05:25:25;;;;;;;65.93;28.17;;;;;;;-0.96;80.58;101035.59;5082846;28;20039;-55
2020/12/20 05:27:50;;;;;;;54.25;26.58;;;;;;;-0.94;81.07;101039.09;5083022;28;20025;-51
2020/12/20 05:30:17;;;;;;;58.08;27.75;;;;;;;-1.22;80.94;100979.31;5082950;28;20024;-52
2020/12/20 05:32:45;;;;;;;62.72;27.50;;;;;;;-0.83;79.89;101052.31;5083016;28;20031;-52
2020/12/20 05:35:13;;;;;;;65.05;25.38;;;;;;;-0.95;80.53;101070.41;5082394;28;20036;-52
2020/12/20 05:37:41;;;;;;;61.03;27.30;;;;;;;-1.39;80.69;100990.38;5082728;28;20028;-52
2020/12/20 05:40:08;;;;;;;63.85;29.40;;;;;;;-1.11;81.22;101060.28;5082513;28;20062;-53
2020/12/20 05:42:35;;;;;;;61.35;28.27;;;;;;;-1.02;81.05;101044.63;5082542;28;20030;-53
2020/12/20 05:45:05;;;;;;;58.13;28.85;;;;;;;-1.00;81.11;101030.31;5064073;28;20036;-53
2020/12/20 05:47:31;;;;;;;59.28;26.90;;;;;;;-0.75;80.60;101051.00;5077908;28;20044;-53
2020/12/20 05:49:56;;;;;;;65.25;29.98;;;;;;;-0.71;79.82;101045.25;5062134;28;20029;-52
2020/12/20 05:52:22;;;;;;;60.25;28.40;;;;;;;-0.71;79.66;101057.13;5062280;28;20041;-52
2020/12/20 05:54:47;;;;;;;67.57;29.80;;;;;;;-0.80;80.04;101057.53;5078294;28;20020;-53
2020/12/20 05:57:15;;;;;;;62.90;28.90;;;;;;;-0.72;80.38;101074.03;5082507;28;20312;-52
2020/12/20 05:59:42;;;;;;;64.72;29.10;;;;;;;-0.75;80.40;101055.22;5082368;28;20218;-52
2020/12/20 06:02:08;;;;;;;63.85;29.70;;;;;;;-0.66;80.18;101055.63;5082164;28;20028;-53
2020/12/20 06:04:35;;;;;;;65.28;30.60;;;;;;;-0.73;79.58;101063.78;5068092;28;20021;-52
2020/12/20 06:07:01;;;;;;;61.03;28.52;;;;;;;-0.75;80.11;101070.50;5062285;28;20025;-52
2020/12/20 06:09:28;;;;;;;65.20;30.63;;;;;;;-0.96;81.58;101057.63;5062136;28;20028;-52
2020/12/20 06:11:56;;;;;;;68.40;28.88;;;;;;;-0.98;81.01;101107.50;5069943;28;20128;-54
2020/12/20 06:14:24;;;;;;;67.05;30.50;;;;;;;-0.87;80.75;101094.53;5082264;28;20098;-54
2020/12/20 06:17:03;;;;;;;65.53;30.25;;;;;;;-1.44;81.33;100991.78;5082199;28;20031;-52
2020/12/20 06:19:44;;;;;;;64.50;28.88;;;;;;;-1.27;81.35;101018.91;5085682;28;20038;-52
2020/12/20 06:22:18;;;;;;;69.38;30.98;;;;;;;-0.97;82.31;101092.34;5086434;28;20059;-54
2020/12/20 06:24:50;;;;;;;69.47;30.05;;;;;;;-1.33;81.68;101017.72;5086204;28;20032;-52
2020/12/20 06:27:17;;;;;;;64.03;27.55;;;;;;;-0.80;80.88;101085.50;5086147;28;20032;-53
2020/12/20 06:29:48;;;;;;;62.95;28.88;;;;;;;-0.76;80.91;101099.25;5086176;28;20028;-53
2020/12/20 06:32:19;;;;;;;64.75;29.67;;;;;;;-1.03;81.30;101027.63;5086176;28;20020;-53
2020/12/20 06:34:45;;;;;;;64.15;25.85;;;;;;;-1.01;81.82;101097.19;5086133;28;20047;-53
2020/12/20 06:37:12;;;;;;;69.75;30.35;;;;;;;-1.45;82.05;101033.25;5086144;28;20024;-52
2020/12/20 06:39:41;;;;;;;75.03;35.28;;;;;;;-1.05;82.76;101106.38;5086065;28;20028;-52
2020/12/20 06:42:07;;;;;;;62.92;29.10;;;;;;;-0.84;82.26;101096.34;5085762;28;20024;-52
2020/12/20 06:44:32;;;;;;;65.18;28.25;;;;;;;-1.05;82.36;101107.22;5072509;28;20056;-52
2020/12/20 06:46:59;;;;;;;62.53;29.70;;;;;;;-1.06;82.28;101090.22;5065593;28;20028;-54
2020/12/20 06:49:40;;;;;;;70.30;29.83;;;;;;;-0.91;81.53;101100.28;5065894;28;20024;-53
2020/12/20 06:52:19;;;;;;;61.88;29.17;;;;;;;-1.09;82.27;101066.34;5065688;28;20201;-54
2020/12/20 06:55:14;;;;;;;65.50;30.00;;;;;;;-0.85;81.94;101093.75;5079455;28;20028;-54
2020/12/20 06:58:01;;;;;;;72.50;31.52;;;;;;;-0.79;81.65;101105.06;5083419;28;20048;-54
2020/12/20 07:00:54;;;;;;;56.67;28.15;;;;;;;-0.68;81.31;101097.94;5085607;28;20089;-54
2020/12/20 07:03:30;;;;;;;58.47;28.40;;;;;;;-0.76;82.09;101106.88;5080050;28;20065;-54
2020/12/20 07:05:56;;;;;;;57.53;26.15;;;;;;;-0.70;81.31;101108.06;5065527;28;20055;-54
2020/12/20 07:08:26;;;;;;;58.20;25.98;;;;;;;-0.78;81.36;101109.34;5065492;28;20127;-54
2020/12/20 07:10:53;;;;;;;60.17;28.27;;;;;;;-0.80;81.64;101113.47;5065469;28;20029;-53
2020/12/20 07:13:39;;;;;;;65.05;28.17;;;;;;;-0.66;81.23;101111.59;5068066;28;20043;-52
2020/12/20 07:16:15;;;;;;;54.92;27.23;;;;;;;-1.02;81.51;101049.72;5085004;28;20340;-53
2020/12/20 07:18:50;;;;;;;61.60;28.48;;;;;;;-0.52;80.98;101110.56;5085276;28;20113;-54
2020/12/20 07:21:18;;;;;;;60.28;27.83;;;;;;;-0.37;81.05;101104.44;5085285;28;20107;-54
2020/12/20 07:23:47;;;;;;;61.70;30.20;;;;;;;-0.53;80.60;101107.97;5079061;28;20322;-53
2020/12/20 07:26:14;;;;;;;61.40;29.77;;;;;;;-0.25;80.32;101099.94;5064954;28;20095;-54
2020/12/20 07:28:39;;;;;;;61.08;29.15;;;;;;;-0.45;80.63;101104.09;5080787;28;20063;-54
2020/12/20 07:31:13;;;;;;;54.65;27.90;;;;;;;-0.58;79.50;101079.78;5084174;28;20040;-56
2020/12/20 07:33:39;;;;;;;64.05;30.10;;;;;;;-0.28;79.36;101109.97;5085004;28;20024;-53
2020/12/20 07:36:04;;;;;;;57.22;27.50;;;;;;;-0.27;79.25;101109.19;5085116;28;20028;-53
2020/12/20 07:38:30;;;;;;;60.88;29.08;;;;;;;-0.11;79.12;101118.38;5084891;28;20028;-54
2020/12/20 07:40:56;;;;;;;55.45;26.92;;;;;;;0.02;79.36;101119.81;5085123;28;20092;-54
2020/12/20 07:43:21;;;;;;;57.13;28.55;;;;;;;-0.29;78.66;101113.31;5082025;28;20345;-52
2020/12/20 07:46:00;;;;;;;59.80;27.50;;;;;;;-0.44;79.28;101112.59;5064409;28;20106;-52
2020/12/20 07:48:27;;;;;;;61.17;28.60;;;;;;;-0.45;80.05;101113.44;5064598;28;20147;-54
2020/12/20 07:51:05;;;;;;;53.78;27.77;;;;;;;-0.22;79.52;101112.78;5064642;28;20037;-52
2020/12/20 07:53:31;;;;;;;58.20;26.77;;;;;;;-0.15;79.71;101110.53;5068503;28;20063;-53
2020/12/20 07:55:56;;;;;;;57.03;28.83;;;;;;;-0.11;78.99;101120.06;5084826;28;20029;-53
2020/12/20 07:58:22;;;;;;;58.83;29.33;;;;;;;-0.15;79.46;101116.50;5084749;28;20027;-53
2020/12/20 08:00:48;;;;;;;59.22;27.92;;;;;;;-0.12;78.48;101115.75;5084408;28;20025;-54
2020/12/20 08:03:14;;;;;;;53.28;27.13;;;;;;;-0.14;79.56;101112.25;5082920;28;20055;-54
2020/12/20 08:05:39;;;;;;;52.03;27.55;;;;;;;-0.39;79.43;101095.88;5064262;28;20120;-53
2020/12/20 08:08:05;;;;;;;49.72;24.23;;;;;;;-0.45;80.09;101113.44;5064363;28;20040;-54
2020/12/20 08:10:31;;;;;;;54.83;27.83;;;;;;;-0.26;80.39;101098.16;5064522;28;20090;-53
2020/12/20 08:12:56;;;;;;;57.65;28.65;;;;;;;-0.14;80.75;101100.44;5083299;28;20365;-54
2020/12/20 08:15:22;;;;;;;59.05;28.55;;;;;;;-0.11;79.59;101095.47;5083820;28;20167;-53
2020/12/20 08:17:47;;;;;;;60.38;29.05;;;;;;;-0.12;79.65;101096.25;5082518;28;20017;-53
2020/12/20 08:20:14;;;;;;;57.85;28.00;;;;;;;-0.21;79.31;101093.31;5083899;28;20028;-53
2020/12/20 08:22:40;;;;;;;56.03;26.70;;;;;;;-0.21;80.84;101089.09;5083638;28;20066;-53
2020/12/20 08:25:10;;;;;;;55.00;28.48;;;;;;;-0.04;79.70;101084.75;5083574;28;20033;-53
2020/12/20 08:27:43;;;;;;;54.25;28.15;;;;;;;0.06;79.43;101090.22;5083496;28;20024;-53
2020/12/20 08:30:11;;;;;;;60.95;27.73;;;;;;;0.07;79.00;101091.97;5083341;28;20039;-53
2020/12/20 08:32:40;;;;;;;51.97;27.45;;;;;;;-0.39;79.45;101032.25;5083270;28;20098;-53
2020/12/20 08:35:14;;;;;;;51.75;27.77;;;;;;;0.18;79.70;101098.41;5083458;28;20039;-52
2020/12/20 08:37:40;;;;;;;55.30;28.17;;;;;;;0.14;79.28;101091.44;5083365;28;20162;-53
2020/12/20 08:40:15;;;;;;;56.78;28.27;;;;;;;0.15;79.78;101094.06;5083081;28;20036;-54
2020/12/20 08:42:43;;;;;;;54.60;28.00;;;;;;;-0.17;79.22;101036.66;5083225;28;20066;-53
2020/12/20 08:45:19;;;;;;;54.22;27.98;;;;;;;0.23;78.72;101096.97;5082681;28;20044;-53
2020/12/20 08:47:46;;;;;;;54.38;28.80;;;;;;;0.10;79.46;101095.56;5080810;28;20036;-52
2020/12/20 08:50:13;;;;;;;49.22;26.70;;;;;;;0.42;78.85;101093.50;5083378;28;20099;-52
2020/12/20 08:52:39;;;;;;;49.65;27.13;;;;;;;0.72;77.61;101092.19;5083532;28;20051;-54
2020/12/20 08:55:07;;;;;;;53.40;27.92;;;;;;;0.78;76.89;101092.44;5083146;28;20033;-54
2020/12/20 08:57:34;;;;;;;55.75;29.70;;;;;;;0.82;77.59;101094.31;5083252;28;20100;-53
2020/12/20 09:00:11;;;;;;;51.08;27.38;;;;;;;0.93;77.14;101100.72;5082722;28;20029;-53
2020/12/20 09:02:37;;;;;;;52.05;27.65;;;;;;;0.95;76.72;101085.50;5080410;28;20063;-53
2020/12/20 09:05:13;;;;;;;53.13;26.67;;;;;;;0.65;76.25;101028.19;5083063;28;20074;-53
2020/12/20 09:07:41;;;;;;;55.05;28.15;;;;;;;0.65;76.05;101022.25;5083070;28;20028;-53
2020/12/20 09:10:34;;;;;;;48.63;26.52;;;;;;;1.11;76.14;101082.75;5082734;28;20328;-55
2020/12/20 09:13:02;;;;;;;53.20;28.20;;;;;;;1.05;75.85;101073.97;5080183;28;20045;-54
2020/12/20 09:15:33;;;;;;;53.83;23.90;;;;;;;0.36;76.38;101024.47;5082885;28;20024;-54
2020/12/20 09:18:21;;;;;;;50.23;27.50;;;;;;;0.86;76.79;101074.09;5082627;28;20091;-54
2020/12/20 09:20:47;;;;;;;54.83;28.70;;;;;;;0.94;76.30;101076.97;5082844;28;20025;-54
2020/12/20 09:23:20;;;;;;;51.47;28.23;;;;;;;1.06;75.66;101078.28;5082443;28;20047;-55
2020/12/20 09:25:47;;;;;;;50.83;27.30;;;;;;;1.06;75.75;101073.19;5062919;28;20052;-55
2020/12/20 09:28:20;;;;;;;52.38;28.08;;;;;;;1.16;75.63;101068.47;5075156;28;20031;-55
2020/12/20 09:30:50;;;;;;;48.45;27.35;;;;;;;0.94;76.05;101070.97;5082784;28;20081;-55
2020/12/20 09:33:28;;;;;;;50.80;27.23;;;;;;;0.95;76.08;101083.78;5082522;28;20034;-55
2020/12/20 09:36:18;;;;;;;52.05;27.73;;;;;;;0.81;77.03;101097.66;5081626;28;21070;-54
2020/12/20 09:38:45;;;;;;;51.65;27.58;;;;;;;0.66;77.45;101068.19;5080956;28;20340;-54
2020/12/20 09:41:22;;;;;;;48.75;26.83;;;;;;;0.64;76.81;101023.94;5079588;28;20033;-54
2020/12/20 09:43:50;;;;;;;54.40;28.38;;;;;;;0.57;76.88;101021.06;5082053;28;20025;-55
2020/12/20 09:46:30;;;;;;;50.25;26.80;;;;;;;1.13;76.38;101095.56;5082496;28;20114;-53
2020/12/20 09:48:57;;;;;;;58.53;29.95;;;;;;;1.08;76.44;101080.06;5082411;28;20249;-53
2020/12/20 09:51:24;;;;;;;54.92;27.92;;;;;;;1.14;76.38;101077.75;5082388;28;20025;-53
2020/12/20 09:53:51;;;;;;;52.65;28.17;;;;;;;1.00;76.48;101077.22;5081369;28;20305;-53
2020/12/20 09:56:17;;;;;;;60.38;29.77;;;;;;;0.86;77.33;101080.88;5081964;28;20028;-54
2020/12/20 09:58:43;;;;;;;63.67;30.30;;;;;;;0.97;76.74;101082.19;5081865;28;20044;-53
2020/12/20 10:01:22;;;;;;;57.05;30.27;;;;;;;0.99;77.39;101098.41;5081773;28;20028;-55
2020/12/20 10:03:48;;;;;;;60.08;28.77;;;;;;;1.18;76.36;101094.06;5081546;28;20318;-53
2020/12/20 10:06:15;;;;;;;59.13;29.40;;;;;;;1.18;77.08;101091.50;5081813;28;20309;-54
2020/12/20 10:08:41;;;;;;;60.05;30.33;;;;;;;1.25;76.38;101096.03;5081679;28;20017;-55
2020/12/20 10:11:09;;;;;;;53.83;28.10;;;;;;;1.38;76.29;101094.81;5078447;28;20089;-54
2020/12/20 10:13:34;;;;;;;51.22;28.15;;;;;;;1.15;76.47;101084.59;5081962;28;20037;-54
2020/12/20 10:16:00;;;;;;;58.33;30.60;;;;;;;1.14;76.48;101084.53;5070562;28;20112;-54
2020/12/20 10:18:25;;;;;;;52.30;27.15;;;;;;;0.96;76.52;101084.69;5062303;28;20056;-55
2020/12/20 10:20:51;;;;;;;56.33;28.70;;;;;;;0.86;77.80;101094.50;5076101;28;20101;-55
2020/12/20 10:23:17;;;;;;;59.92;31.30;;;;;;;0.77;77.58;101089.03;5079273;28;20118;-54
2020/12/20 10:25:42;;;;;;;59.78;30.63;;;;;;;0.84;78.48;101095.22;5079856;28;20043;-54
2020/12/20 10:28:09;;;;;;;55.40;30.90;;;;;;;0.95;78.06;101093.13;5081913;28;20057;-55
2020/12/20 10:30:35;;;;;;;62.15;32.63;;;;;;;0.98;77.58;101077.94;5079520;28;20039;-55
2020/12/20 10:33:01;;;;;;;60.90;32.38;;;;;;;1.10;77.37;101087.75;5080083;28;20661;-56
2020/12/20 10:35:27;;;;;;;63.50;33.38;;;;;;;0.96;77.78;101085.53;5073019;28;20087;-56
2020/12/20 10:37:59;;;;;;;58.90;29.25;;;;;;;1.17;77.23;101070.22;5062114;28;20063;-55
2020/12/20 10:40:25;;;;;;;;;;;;;;;0.86;77.57;101097.03;5062486;28;20033;-54
2020/12/20 10:42:51;;;;;;;63.70;32.78;;;;;;;1.08;77.56;101095.34;5063600;28;19904;-55
2020/12/20 10:45:17;;;;;;;65.22;31.25;;;;;;;1.11;77.82;101086.97;5080105;28;20104;-54
2020/12/20 10:47:43;;;;;;;67.22;30.10;;;;;;;0.76;78.94;101073.69;5081828;28;20074;-56
2020/12/20 10:50:09;;;;;;;56.88;30.63;;;;;;;0.81;78.96;101064.53;5082002;28;20036;-56
2020/12/20 10:52:35;;;;;;;58.60;29.98;;;;;;;0.69;79.04;101052.16;5079733;28;20028;-54
2020/12/20 10:55:02;;;;;;;60.55;30.70;;;;;;;0.87;79.18;101054.59;5085390;28;20221;-54
2020/12/20 10:57:30;;;;;;;57.40;28.60;;;;;;;0.89;78.92;101058.06;5074665;28;20048;-54
2020/12/20 10:59:56;;;;;;;62.58;29.95;;;;;;;0.88;79.57;101060.53;5075590;28;20286;-54
2020/12/20 11:02:21;;;;;;;55.88;30.15;;;;;;;1.05;78.94;101058.66;5074745;28;20032;-53
2020/12/20 11:04:47;;;;;;;56.38;30.52;;;;;;;1.16;78.06;101082.94;5079808;28;20069;-54
2020/12/20 11:07:12;;;;;;;54.70;29.02;;;;;;;1.06;78.02;101074.03;5083382;28;20332;-55
2020/12/20 11:09:38;;;;;;;56.15;29.08;;;;;;;1.15;78.23;101088.84;5084676;28;20108;-55
2020/12/20 11:12:05;;;;;;;57.63;28.30;;;;;;;1.23;78.16;101090.00;5083396;28;20024;-54
2020/12/20 11:14:33;;;;;;;57.08;27.77;;;;;;;0.93;78.89;101076.91;5085045;28;20060;-55
2020/12/20 11:17:00;;;;;;;54.20;29.02;;;;;;;1.11;78.58;101086.97;5078413;28;20170;-55